sensor_id;sensor_type;location;lat;lon;timestamp;P1;durP1;ratioP1;P2;durP2;ratioP2
17987;SDS011;9119;50.932;5.342;2022-07-03T00:02:08;242.13;;;133.43;;
17987;SDS011;9119;50.932;5.342;2022-07-03T00:04:34;450.67;;;273.83;;
17987;SDS011;9119;50.932;5.342;2022-07-03T00:07:00;283.80;;;164.13;;
17987;SDS011;9119;50.932;5.342;2022-07-03T00:09:26;53.73;;;31.13;;
17987;SDS011;9119;50.932;5.342;2022-07-03T00:11:51;60.60;;;32.83;;
17987;SDS011;9119;50.932;5.342;2022-07-03T00:14:17;46.07;;;27.83;;
17987;SDS011;9119;50.932;5.342;2022-07-03T00:16:43;96.73;;;55.70;;
17987;SDS011;9119;50.932;5.342;2022-07-03T00:19:09;143.30;;;82.40;;
17987;SDS011;9119;50.932;5.342;2022-07-03T00:21:36;184.57;;;101.43;;
17987;SDS011;9119;50.932;5.342;2022-07-03T00:26:53;54.53;;;27.60;;
17987;SDS011;9119;50.932;5.342;2022-07-03T00:29:21;88.40;;;47.70;;
17987;SDS011;9119;50.932;5.342;2022-07-03T00:31:48;23.93;;;13.60;;
17987;SDS011;9119;50.932;5.342;2022-07-03T00:34:15;45.80;;;27.63;;
17987;SDS011;9119;50.932;5.342;2022-07-03T00:36:42;42.43;;;23.63;;
17987;SDS011;9119;50.932;5.342;2022-07-03T00:39:11;55.20;;;29.33;;
17987;SDS011;9119;50.932;5.342;2022-07-03T00:41:37;58.97;;;32.43;;
17987;SDS011;9119;50.932;5.342;2022-07-03T00:44:05;138.07;;;76.43;;
17987;SDS011;9119;50.932;5.342;2022-07-03T00:46:31;49.10;;;29.10;;
17987;SDS011;9119;50.932;5.342;2022-07-03T00:48:57;10.80;;;7.23;;
17987;SDS011;9119;50.932;5.342;2022-07-03T00:51:27;12.30;;;7.17;;
17987;SDS011;9119;50.932;5.342;2022-07-03T00:53:57;17.50;;;9.00;;
17987;SDS011;9119;50.932;5.342;2022-07-03T00:56:30;11.27;;;6.30;;
17987;SDS011;9119;50.932;5.342;2022-07-03T00:58:57;10.97;;;4.60;;
17987;SDS011;9119;50.932;5.342;2022-07-03T01:01:25;16.53;;;9.00;;
17987;SDS011;9119;50.932;5.342;2022-07-03T01:04:08;10.33;;;5.40;;
17987;SDS011;9119;50.932;5.342;2022-07-03T01:12:23;14.40;;;7.67;;
17987;SDS011;9119;50.932;5.342;2022-07-03T01:15:02;14.47;;;6.77;;
17987;SDS011;9119;50.932;5.342;2022-07-03T01:17:38;11.97;;;4.87;;
17987;SDS011;9119;50.932;5.342;2022-07-03T01:20:05;8.70;;;5.40;;
17987;SDS011;9119;50.932;5.342;2022-07-03T01:22:42;10.30;;;5.50;;
17987;SDS011;9119;50.932;5.342;2022-07-03T01:27:56;8.20;;;4.53;;
17987;SDS011;9119;50.932;5.342;2022-07-03T01:33:15;19.57;;;9.60;;
17987;SDS011;9119;50.932;5.342;2022-07-03T01:38:34;17.90;;;6.97;;
17987;SDS011;9119;50.932;5.342;2022-07-03T01:41:06;11.70;;;5.23;;
17987;SDS011;9119;50.932;5.342;2022-07-03T01:43:44;10.37;;;6.17;;
17987;SDS011;9119;50.932;5.342;2022-07-03T01:46:12;12.50;;;5.70;;
17987;SDS011;9119;50.932;5.342;2022-07-03T01:48:41;7.13;;;3.97;;
17987;SDS011;9119;50.932;5.342;2022-07-03T01:51:09;12.37;;;5.87;;
17987;SDS011;9119;50.932;5.342;2022-07-03T01:53:40;20.10;;;6.37;;
17987;SDS011;9119;50.932;5.342;2022-07-03T01:56:09;8.80;;;3.80;;
17987;SDS011;9119;50.932;5.342;2022-07-03T01:58:36;15.17;;;7.10;;
17987;SDS011;9119;50.932;5.342;2022-07-03T02:09:32;85.67;;;36.83;;
17987;SDS011;9119;50.932;5.342;2022-07-03T02:12:11;12.27;;;6.63;;
17987;SDS011;9119;50.932;5.342;2022-07-03T02:14:38;9.43;;;4.90;;
17987;SDS011;9119;50.932;5.342;2022-07-03T02:17:18;7.47;;;4.63;;
17987;SDS011;9119;50.932;5.342;2022-07-03T02:19:56;11.27;;;5.57;;
17987;SDS011;9119;50.932;5.342;2022-07-03T02:22:27;12.63;;;4.77;;
17987;SDS011;9119;50.932;5.342;2022-07-03T02:25:05;7.40;;;4.73;;
17987;SDS011;9119;50.932;5.342;2022-07-03T02:27:32;11.77;;;4.50;;
17987;SDS011;9119;50.932;5.342;2022-07-03T02:30:08;13.67;;;6.47;;
17987;SDS011;9119;50.932;5.342;2022-07-03T02:32:36;12.80;;;5.07;;
17987;SDS011;9119;50.932;5.342;2022-07-03T02:35:11;10.80;;;4.83;;
17987;SDS011;9119;50.932;5.342;2022-07-03T02:37:45;9.20;;;4.03;;
17987;SDS011;9119;50.932;5.342;2022-07-03T02:40:29;8.90;;;4.70;;
17987;SDS011;9119;50.932;5.342;2022-07-03T02:48:54;7.97;;;3.90;;
17987;SDS011;9119;50.932;5.342;2022-07-03T02:51:26;6.83;;;4.30;;
17987;SDS011;9119;50.932;5.342;2022-07-03T02:54:02;8.97;;;3.67;;
17987;SDS011;9119;50.932;5.342;2022-07-03T02:56:48;9.90;;;4.60;;
17987;SDS011;9119;50.932;5.342;2022-07-03T02:59:30;8.83;;;4.13;;
17987;SDS011;9119;50.932;5.342;2022-07-03T03:02:06;12.27;;;5.87;;
17987;SDS011;9119;50.932;5.342;2022-07-03T03:04:39;12.50;;;6.83;;
17987;SDS011;9119;50.932;5.342;2022-07-03T03:07:14;9.23;;;5.93;;
17987;SDS011;9119;50.932;5.342;2022-07-03T03:09:41;8.50;;;4.90;;
17987;SDS011;9119;50.932;5.342;2022-07-03T03:12:12;7.93;;;4.70;;
17987;SDS011;9119;50.932;5.342;2022-07-03T03:14:43;9.70;;;4.70;;
17987;SDS011;9119;50.932;5.342;2022-07-03T03:17:19;11.47;;;5.00;;
17987;SDS011;9119;50.932;5.342;2022-07-03T03:19:55;8.43;;;4.97;;
17987;SDS011;9119;50.932;5.342;2022-07-03T03:22:28;12.90;;;5.63;;
17987;SDS011;9119;50.932;5.342;2022-07-03T03:25:13;13.50;;;5.60;;
17987;SDS011;9119;50.932;5.342;2022-07-03T03:27:40;13.10;;;5.30;;
17987;SDS011;9119;50.932;5.342;2022-07-03T03:30:06;14.17;;;5.40;;
17987;SDS011;9119;50.932;5.342;2022-07-03T03:32:33;7.03;;;4.40;;
17987;SDS011;9119;50.932;5.342;2022-07-03T03:35:01;9.33;;;4.77;;
17987;SDS011;9119;50.932;5.342;2022-07-03T03:37:27;9.83;;;4.00;;
17987;SDS011;9119;50.932;5.342;2022-07-03T03:39:53;9.93;;;4.23;;
17987;SDS011;9119;50.932;5.342;2022-07-03T03:42:18;5.07;;;3.60;;
17987;SDS011;9119;50.932;5.342;2022-07-03T03:44:44;7.40;;;3.80;;
17987;SDS011;9119;50.932;5.342;2022-07-03T03:47:10;5.77;;;3.20;;
17987;SDS011;9119;50.932;5.342;2022-07-03T03:49:35;8.23;;;3.97;;
17987;SDS011;9119;50.932;5.342;2022-07-03T03:52:01;7.10;;;3.70;;
17987;SDS011;9119;50.932;5.342;2022-07-03T03:54:27;5.60;;;3.87;;
17987;SDS011;9119;50.932;5.342;2022-07-03T03:56:53;12.27;;;3.70;;
17987;SDS011;9119;50.932;5.342;2022-07-03T03:59:19;8.13;;;4.03;;
17987;SDS011;9119;50.932;5.342;2022-07-03T04:01:45;7.43;;;3.60;;
17987;SDS011;9119;50.932;5.342;2022-07-03T04:04:12;5.50;;;3.60;;
17987;SDS011;9119;50.932;5.342;2022-07-03T04:06:42;7.07;;;3.90;;
17987;SDS011;9119;50.932;5.342;2022-07-03T04:09:08;8.83;;;3.80;;
17987;SDS011;9119;50.932;5.342;2022-07-03T04:11:34;8.00;;;4.10;;
17987;SDS011;9119;50.932;5.342;2022-07-03T04:13:59;8.20;;;3.97;;
17987;SDS011;9119;50.932;5.342;2022-07-03T04:16:25;7.67;;;3.67;;
17987;SDS011;9119;50.932;5.342;2022-07-03T04:18:52;5.93;;;3.77;;
17987;SDS011;9119;50.932;5.342;2022-07-03T04:21:18;5.90;;;3.87;;
17987;SDS011;9119;50.932;5.342;2022-07-03T04:23:43;9.70;;;4.33;;
17987;SDS011;9119;50.932;5.342;2022-07-03T04:26:09;7.67;;;4.03;;
17987;SDS011;9119;50.932;5.342;2022-07-03T04:28:35;15.80;;;4.40;;
17987;SDS011;9119;50.932;5.342;2022-07-03T04:31:00;8.67;;;3.63;;
17987;SDS011;9119;50.932;5.342;2022-07-03T04:33:26;11.37;;;4.13;;
17987;SDS011;9119;50.932;5.342;2022-07-03T04:35:51;6.93;;;3.70;;
17987;SDS011;9119;50.932;5.342;2022-07-03T04:38:17;8.90;;;3.70;;
17987;SDS011;9119;50.932;5.342;2022-07-03T04:40:43;8.43;;;3.70;;
17987;SDS011;9119;50.932;5.342;2022-07-03T04:43:09;6.77;;;3.67;;
17987;SDS011;9119;50.932;5.342;2022-07-03T04:45:35;9.20;;;3.53;;
17987;SDS011;9119;50.932;5.342;2022-07-03T04:48:00;8.23;;;3.43;;
17987;SDS011;9119;50.932;5.342;2022-07-03T04:50:26;10.60;;;3.20;;
17987;SDS011;9119;50.932;5.342;2022-07-03T04:52:51;5.50;;;3.37;;
17987;SDS011;9119;50.932;5.342;2022-07-03T04:55:18;9.03;;;3.00;;
17987;SDS011;9119;50.932;5.342;2022-07-03T04:57:43;9.20;;;3.40;;
17987;SDS011;9119;50.932;5.342;2022-07-03T05:00:09;8.90;;;3.30;;
17987;SDS011;9119;50.932;5.342;2022-07-03T05:02:35;8.27;;;3.20;;
17987;SDS011;9119;50.932;5.342;2022-07-03T05:05:00;8.73;;;3.17;;
17987;SDS011;9119;50.932;5.342;2022-07-03T05:07:26;11.07;;;2.97;;
17987;SDS011;9119;50.932;5.342;2022-07-03T05:09:52;6.97;;;2.60;;
17987;SDS011;9119;50.932;5.342;2022-07-03T05:12:17;6.13;;;2.70;;
17987;SDS011;9119;50.932;5.342;2022-07-03T05:14:43;4.30;;;3.23;;
17987;SDS011;9119;50.932;5.342;2022-07-03T05:17:09;6.73;;;2.47;;
17987;SDS011;9119;50.932;5.342;2022-07-03T05:19:36;6.03;;;2.60;;
17987;SDS011;9119;50.932;5.342;2022-07-03T05:22:02;5.20;;;2.50;;
17987;SDS011;9119;50.932;5.342;2022-07-03T05:24:28;5.13;;;2.30;;
17987;SDS011;9119;50.932;5.342;2022-07-03T05:26:54;5.50;;;2.27;;
17987;SDS011;9119;50.932;5.342;2022-07-03T05:29:19;4.50;;;2.20;;
17987;SDS011;9119;50.932;5.342;2022-07-03T05:31:45;3.90;;;1.97;;
17987;SDS011;9119;50.932;5.342;2022-07-03T05:34:12;5.37;;;2.20;;
17987;SDS011;9119;50.932;5.342;2022-07-03T05:36:37;7.17;;;2.47;;
17987;SDS011;9119;50.932;5.342;2022-07-03T05:39:03;7.07;;;2.60;;
17987;SDS011;9119;50.932;5.342;2022-07-03T05:41:47;5.00;;;2.47;;
17987;SDS011;9119;50.932;5.342;2022-07-03T05:44:13;6.13;;;2.93;;
17987;SDS011;9119;50.932;5.342;2022-07-03T05:46:38;7.17;;;2.70;;
17987;SDS011;9119;50.932;5.342;2022-07-03T05:49:04;7.10;;;2.83;;
17987;SDS011;9119;50.932;5.342;2022-07-03T05:51:30;5.33;;;3.00;;
17987;SDS011;9119;50.932;5.342;2022-07-03T05:53:56;7.53;;;2.87;;
17987;SDS011;9119;50.932;5.342;2022-07-03T05:56:21;9.33;;;2.60;;
17987;SDS011;9119;50.932;5.342;2022-07-03T05:58:47;7.30;;;2.83;;
17987;SDS011;9119;50.932;5.342;2022-07-03T06:01:13;5.83;;;2.70;;
17987;SDS011;9119;50.932;5.342;2022-07-03T06:03:38;6.20;;;2.33;;
17987;SDS011;9119;50.932;5.342;2022-07-03T06:06:04;5.83;;;2.47;;
17987;SDS011;9119;50.932;5.342;2022-07-03T06:08:29;4.37;;;2.60;;
17987;SDS011;9119;50.932;5.342;2022-07-03T06:10:55;6.77;;;2.57;;
17987;SDS011;9119;50.932;5.342;2022-07-03T06:13:21;5.23;;;2.30;;
17987;SDS011;9119;50.932;5.342;2022-07-03T06:15:46;7.23;;;2.47;;
17987;SDS011;9119;50.932;5.342;2022-07-03T06:18:12;6.07;;;2.20;;
17987;SDS011;9119;50.932;5.342;2022-07-03T06:20:38;7.97;;;2.33;;
17987;SDS011;9119;50.932;5.342;2022-07-03T06:23:03;5.00;;;2.07;;
17987;SDS011;9119;50.932;5.342;2022-07-03T06:25:29;6.10;;;2.03;;
17987;SDS011;9119;50.932;5.342;2022-07-03T06:27:54;10.30;;;2.40;;
17987;SDS011;9119;50.932;5.342;2022-07-03T06:30:20;4.40;;;2.40;;
17987;SDS011;9119;50.932;5.342;2022-07-03T06:32:46;4.27;;;2.13;;
17987;SDS011;9119;50.932;5.342;2022-07-03T06:35:11;8.23;;;2.43;;
17987;SDS011;9119;50.932;5.342;2022-07-03T06:37:37;3.87;;;2.10;;
17987;SDS011;9119;50.932;5.342;2022-07-03T06:40:03;9.83;;;2.27;;
17987;SDS011;9119;50.932;5.342;2022-07-03T06:42:29;3.83;;;2.03;;
17987;SDS011;9119;50.932;5.342;2022-07-03T06:44:55;5.00;;;2.00;;
17987;SDS011;9119;50.932;5.342;2022-07-03T06:47:20;8.97;;;2.00;;
17987;SDS011;9119;50.932;5.342;2022-07-03T06:49:46;6.40;;;2.17;;
17987;SDS011;9119;50.932;5.342;2022-07-03T06:52:11;4.13;;;1.73;;
17987;SDS011;9119;50.932;5.342;2022-07-03T06:54:37;9.97;;;2.70;;
17987;SDS011;9119;50.932;5.342;2022-07-03T06:57:05;2.97;;;1.77;;
17987;SDS011;9119;50.932;5.342;2022-07-03T06:59:30;6.13;;;2.00;;
17987;SDS011;9119;50.932;5.342;2022-07-03T07:01:56;3.03;;;1.80;;
17987;SDS011;9119;50.932;5.342;2022-07-03T07:04:22;6.23;;;1.60;;
17987;SDS011;9119;50.932;5.342;2022-07-03T07:06:47;4.90;;;2.03;;
17987;SDS011;9119;50.932;5.342;2022-07-03T07:09:13;6.37;;;1.87;;
17987;SDS011;9119;50.932;5.342;2022-07-03T07:11:38;5.57;;;2.07;;
17987;SDS011;9119;50.932;5.342;2022-07-03T07:14:04;3.20;;;1.93;;
17987;SDS011;9119;50.932;5.342;2022-07-03T07:16:29;4.93;;;2.07;;
17987;SDS011;9119;50.932;5.342;2022-07-03T07:18:55;5.23;;;1.67;;
17987;SDS011;9119;50.932;5.342;2022-07-03T07:21:21;2.70;;;1.63;;
17987;SDS011;9119;50.932;5.342;2022-07-03T07:23:46;5.60;;;1.50;;
17987;SDS011;9119;50.932;5.342;2022-07-03T07:26:12;4.87;;;1.63;;
17987;SDS011;9119;50.932;5.342;2022-07-03T07:28:38;3.83;;;1.60;;
17987;SDS011;9119;50.932;5.342;2022-07-03T07:31:03;5.47;;;1.70;;
17987;SDS011;9119;50.932;5.342;2022-07-03T07:33:29;5.83;;;1.83;;
17987;SDS011;9119;50.932;5.342;2022-07-03T07:35:54;2.07;;;1.50;;
17987;SDS011;9119;50.932;5.342;2022-07-03T07:38:21;3.20;;;1.60;;
17987;SDS011;9119;50.932;5.342;2022-07-03T07:40:46;4.17;;;1.60;;
17987;SDS011;9119;50.932;5.342;2022-07-03T07:43:12;6.40;;;1.27;;
17987;SDS011;9119;50.932;5.342;2022-07-03T07:45:38;4.57;;;1.20;;
17987;SDS011;9119;50.932;5.342;2022-07-03T07:48:04;3.77;;;1.53;;
17987;SDS011;9119;50.932;5.342;2022-07-03T07:50:30;4.73;;;1.50;;
17987;SDS011;9119;50.932;5.342;2022-07-03T07:52:56;3.37;;;1.53;;
17987;SDS011;9119;50.932;5.342;2022-07-03T07:55:22;2.03;;;1.40;;
17987;SDS011;9119;50.932;5.342;2022-07-03T07:57:48;2.47;;;1.40;;
17987;SDS011;9119;50.932;5.342;2022-07-03T08:00:17;5.00;;;1.80;;
17987;SDS011;9119;50.932;5.342;2022-07-03T08:02:44;7.10;;;1.60;;
17987;SDS011;9119;50.932;5.342;2022-07-03T08:05:29;2.10;;;1.50;;
17987;SDS011;9119;50.932;5.342;2022-07-03T08:08:04;3.27;;;1.70;;
17987;SDS011;9119;50.932;5.342;2022-07-03T08:10:33;4.20;;;1.90;;
17987;SDS011;9119;50.932;5.342;2022-07-03T08:13:08;7.03;;;1.57;;
17987;SDS011;9119;50.932;5.342;2022-07-03T08:15:34;2.47;;;1.40;;
17987;SDS011;9119;50.932;5.342;2022-07-03T08:18:00;8.67;;;1.60;;
17987;SDS011;9119;50.932;5.342;2022-07-03T08:20:26;17.30;;;1.90;;
17987;SDS011;9119;50.932;5.342;2022-07-03T08:22:52;20.40;;;2.17;;
17987;SDS011;9119;50.932;5.342;2022-07-03T08:25:18;5.87;;;1.47;;
17987;SDS011;9119;50.932;5.342;2022-07-03T08:27:44;9.03;;;1.60;;
17987;SDS011;9119;50.932;5.342;2022-07-03T08:30:10;8.90;;;2.00;;
17987;SDS011;9119;50.932;5.342;2022-07-03T08:32:36;4.47;;;1.47;;
17987;SDS011;9119;50.932;5.342;2022-07-03T08:35:02;5.33;;;1.70;;
17987;SDS011;9119;50.932;5.342;2022-07-03T08:37:27;4.57;;;1.80;;
17987;SDS011;9119;50.932;5.342;2022-07-03T08:39:53;3.90;;;1.50;;
17987;SDS011;9119;50.932;5.342;2022-07-03T08:42:19;3.17;;;1.57;;
17987;SDS011;9119;50.932;5.342;2022-07-03T08:44:46;3.57;;;1.33;;
17987;SDS011;9119;50.932;5.342;2022-07-03T08:47:14;3.23;;;1.40;;
17987;SDS011;9119;50.932;5.342;2022-07-03T08:49:40;3.67;;;1.30;;
17987;SDS011;9119;50.932;5.342;2022-07-03T08:52:07;1.80;;;1.20;;
17987;SDS011;9119;50.932;5.342;2022-07-03T08:54:34;5.20;;;1.17;;
17987;SDS011;9119;50.932;5.342;2022-07-03T08:57:01;3.53;;;1.40;;
17987;SDS011;9119;50.932;5.342;2022-07-03T08:59:31;6.00;;;1.60;;
17987;SDS011;9119;50.932;5.342;2022-07-03T09:02:01;2.77;;;1.20;;
17987;SDS011;9119;50.932;5.342;2022-07-03T09:04:29;3.40;;;1.73;;
17987;SDS011;9119;50.932;5.342;2022-07-03T09:06:56;3.87;;;1.47;;
17987;SDS011;9119;50.932;5.342;2022-07-03T09:09:23;1.97;;;1.40;;
17987;SDS011;9119;50.932;5.342;2022-07-03T09:11:49;4.30;;;1.93;;
17987;SDS011;9119;50.932;5.342;2022-07-03T09:14:16;4.27;;;1.70;;
17987;SDS011;9119;50.932;5.342;2022-07-03T09:16:41;1.87;;;1.20;;
17987;SDS011;9119;50.932;5.342;2022-07-03T09:19:08;4.33;;;1.30;;
17987;SDS011;9119;50.932;5.342;2022-07-03T09:21:40;4.47;;;1.30;;
17987;SDS011;9119;50.932;5.342;2022-07-03T09:24:07;4.20;;;1.40;;
17987;SDS011;9119;50.932;5.342;2022-07-03T09:26:34;3.53;;;1.70;;
17987;SDS011;9119;50.932;5.342;2022-07-03T09:29:01;4.67;;;1.67;;
17987;SDS011;9119;50.932;5.342;2022-07-03T09:31:28;2.97;;;1.50;;
17987;SDS011;9119;50.932;5.342;2022-07-03T09:33:56;3.73;;;1.40;;
17987;SDS011;9119;50.932;5.342;2022-07-03T09:36:42;2.37;;;1.40;;
17987;SDS011;9119;50.932;5.342;2022-07-03T09:39:25;4.57;;;1.23;;
17987;SDS011;9119;50.932;5.342;2022-07-03T09:42:03;4.70;;;1.30;;
17987;SDS011;9119;50.932;5.342;2022-07-03T09:44:38;4.43;;;1.23;;
17987;SDS011;9119;50.932;5.342;2022-07-03T09:49:55;4.13;;;1.70;;
17987;SDS011;9119;50.932;5.342;2022-07-03T09:52:34;2.10;;;1.10;;
17987;SDS011;9119;50.932;5.342;2022-07-03T09:55:11;5.27;;;1.27;;
17987;SDS011;9119;50.932;5.342;2022-07-03T10:00:17;6.20;;;1.63;;
17987;SDS011;9119;50.932;5.342;2022-07-03T10:03:01;1.20;;;0.93;;
17987;SDS011;9119;50.932;5.342;2022-07-03T10:05:30;1.93;;;1.00;;
17987;SDS011;9119;50.932;5.342;2022-07-03T10:08:02;2.70;;;1.20;;
17987;SDS011;9119;50.932;5.342;2022-07-03T10:10:32;5.90;;;1.03;;
17987;SDS011;9119;50.932;5.342;2022-07-03T10:12:59;2.27;;;0.97;;
17987;SDS011;9119;50.932;5.342;2022-07-03T10:15:25;3.10;;;1.17;;
17987;SDS011;9119;50.932;5.342;2022-07-03T10:17:53;4.20;;;1.20;;
17987;SDS011;9119;50.932;5.342;2022-07-03T10:20:25;1.00;;;0.85;;
17987;SDS011;9119;50.932;5.342;2022-07-03T10:23:24;6.15;;;1.50;;
17987;SDS011;9119;50.932;5.342;2022-07-03T10:25:51;4.40;;;0.90;;
17987;SDS011;9119;50.932;5.342;2022-07-03T10:28:19;4.68;;;1.02;;
17987;SDS011;9119;50.932;5.342;2022-07-03T10:30:46;1.17;;;0.73;;
17987;SDS011;9119;50.932;5.342;2022-07-03T10:33:12;3.75;;;1.17;;
17987;SDS011;9119;50.932;5.342;2022-07-03T10:35:56;1.67;;;0.93;;
17987;SDS011;9119;50.932;5.342;2022-07-03T10:44:12;2.43;;;0.73;;
17987;SDS011;9119;50.932;5.342;2022-07-03T10:46:57;1.95;;;0.93;;
17987;SDS011;9119;50.932;5.342;2022-07-03T10:49:23;2.25;;;1.65;;
17987;SDS011;9119;50.932;5.342;2022-07-03T11:07:32;1.85;;;0.80;;
17987;SDS011;9119;50.932;5.342;2022-07-03T11:18:14;1.15;;;0.80;;
17987;SDS011;9119;50.932;5.342;2022-07-03T11:25:45;1.60;;;0.90;;
17987;SDS011;9119;50.932;5.342;2022-07-03T11:31:29;3.55;;;1.23;;
17987;SDS011;9119;50.932;5.342;2022-07-03T11:38:46;9.30;;;1.35;;
17987;SDS011;9119;50.932;5.342;2022-07-03T11:41:16;3.47;;;1.10;;
17987;SDS011;9119;50.932;5.342;2022-07-03T11:46:21;2.50;;;1.23;;
17987;SDS011;9119;50.932;5.342;2022-07-03T11:48:48;1.87;;;0.93;;
17987;SDS011;9119;50.932;5.342;2022-07-03T11:51:15;2.03;;;1.00;;
17987;SDS011;9119;50.932;5.342;2022-07-03T11:53:41;5.20;;;1.17;;
17987;SDS011;9119;50.932;5.342;2022-07-03T12:04:01;2.30;;;0.90;;
17987;SDS011;9119;50.932;5.342;2022-07-03T12:06:45;4.57;;;1.63;;
17987;SDS011;9119;50.932;5.342;2022-07-03T12:09:18;3.90;;;0.93;;
17987;SDS011;9119;50.932;5.342;2022-07-03T12:11:55;3.67;;;0.98;;
17987;SDS011;9119;50.932;5.342;2022-07-03T12:14:35;3.00;;;1.15;;
17987;SDS011;9119;50.932;5.342;2022-07-03T12:17:00;4.65;;;1.23;;
17987;SDS011;9119;50.932;5.342;2022-07-03T12:19:26;1.27;;;1.10;;
17987;SDS011;9119;50.932;5.342;2022-07-03T12:21:52;1.63;;;1.00;;
17987;SDS011;9119;50.932;5.342;2022-07-03T12:24:17;1.27;;;0.80;;
17987;SDS011;9119;50.932;5.342;2022-07-03T12:26:43;3.53;;;0.88;;
17987;SDS011;9119;50.932;5.342;2022-07-03T12:29:12;1.95;;;1.02;;
17987;SDS011;9119;50.932;5.342;2022-07-03T12:31:40;3.60;;;0.90;;
17987;SDS011;9119;50.932;5.342;2022-07-03T12:34:06;3.40;;;1.23;;
17987;SDS011;9119;50.932;5.342;2022-07-03T12:36:32;5.00;;;1.17;;
17987;SDS011;9119;50.932;5.342;2022-07-03T12:38:58;4.97;;;1.20;;
17987;SDS011;9119;50.932;5.342;2022-07-03T12:41:27;5.77;;;1.30;;
17987;SDS011;9119;50.932;5.342;2022-07-03T12:43:53;4.43;;;1.07;;
17987;SDS011;9119;50.932;5.342;2022-07-03T12:48:49;4.25;;;1.30;;
17987;SDS011;9119;50.932;5.342;2022-07-03T12:51:17;2.73;;;1.33;;
17987;SDS011;9119;50.932;5.342;2022-07-03T12:54:14;4.73;;;1.20;;
17987;SDS011;9119;50.932;5.342;2022-07-03T13:00:00;3.53;;;0.95;;
17987;SDS011;9119;50.932;5.342;2022-07-03T13:02:37;6.03;;;1.10;;
17987;SDS011;9119;50.932;5.342;2022-07-03T13:05:20;2.15;;;0.70;;
17987;SDS011;9119;50.932;5.342;2022-07-03T13:07:51;6.35;;;1.20;;
17987;SDS011;9119;50.932;5.342;2022-07-03T13:10:19;6.80;;;1.17;;
17987;SDS011;9119;50.932;5.342;2022-07-03T13:12:49;1.65;;;1.00;;
17987;SDS011;9119;50.932;5.342;2022-07-03T13:15:28;2.90;;;1.20;;
17987;SDS011;9119;50.932;5.342;2022-07-03T13:20:21;3.63;;;1.10;;
17987;SDS011;9119;50.932;5.342;2022-07-03T13:23:05;5.25;;;1.40;;
17987;SDS011;9119;50.932;5.342;2022-07-03T13:25:32;2.33;;;1.17;;
17987;SDS011;9119;50.932;5.342;2022-07-03T13:28:10;2.93;;;1.07;;
17987;SDS011;9119;50.932;5.342;2022-07-03T13:30:38;6.07;;;1.40;;
17987;SDS011;9119;50.932;5.342;2022-07-03T13:33:05;3.20;;;1.10;;
17987;SDS011;9119;50.932;5.342;2022-07-03T13:35:31;2.50;;;0.93;;
17987;SDS011;9119;50.932;5.342;2022-07-03T13:37:57;2.60;;;0.90;;
17987;SDS011;9119;50.932;5.342;2022-07-03T13:40:23;1.23;;;0.90;;
17987;SDS011;9119;50.932;5.342;2022-07-03T13:42:49;1.80;;;0.93;;
17987;SDS011;9119;50.932;5.342;2022-07-03T13:45:15;6.00;;;1.25;;
17987;SDS011;9119;50.932;5.342;2022-07-03T13:47:40;3.22;;;0.80;;
17987;SDS011;9119;50.932;5.342;2022-07-03T13:50:06;2.28;;;1.10;;
17987;SDS011;9119;50.932;5.342;2022-07-03T13:52:33;1.77;;;0.98;;
17987;SDS011;9119;50.932;5.342;2022-07-03T13:54:58;1.88;;;0.90;;
17987;SDS011;9119;50.932;5.342;2022-07-03T13:57:24;5.13;;;1.35;;
17987;SDS011;9119;50.932;5.342;2022-07-03T13:59:49;4.93;;;1.17;;
17987;SDS011;9119;50.932;5.342;2022-07-03T14:02:15;4.22;;;1.20;;
17987;SDS011;9119;50.932;5.342;2022-07-03T14:04:41;1.17;;;0.82;;
17987;SDS011;9119;50.932;5.342;2022-07-03T14:07:06;1.90;;;1.00;;
17987;SDS011;9119;50.932;5.342;2022-07-03T14:09:32;2.05;;;0.95;;
17987;SDS011;9119;50.932;5.342;2022-07-03T14:11:58;1.98;;;0.90;;
17987;SDS011;9119;50.932;5.342;2022-07-03T14:14:24;2.55;;;0.85;;
17987;SDS011;9119;50.932;5.342;2022-07-03T14:16:50;1.48;;;0.90;;
17987;SDS011;9119;50.932;5.342;2022-07-03T14:19:16;6.57;;;1.38;;
17987;SDS011;9119;50.932;5.342;2022-07-03T14:21:42;2.92;;;1.20;;
17987;SDS011;9119;50.932;5.342;2022-07-03T14:24:07;3.10;;;1.20;;
17987;SDS011;9119;50.932;5.342;2022-07-03T14:26:34;7.03;;;1.40;;
17987;SDS011;9119;50.932;5.342;2022-07-03T14:29:18;5.75;;;1.20;;
17987;SDS011;9119;50.932;5.342;2022-07-03T14:32:02;4.28;;;1.00;;
17987;SDS011;9119;50.932;5.342;2022-07-03T14:34:47;2.60;;;1.20;;
17987;SDS011;9119;50.932;5.342;2022-07-03T14:37:12;3.33;;;1.30;;
17987;SDS011;9119;50.932;5.342;2022-07-03T14:39:43;1.60;;;1.15;;
17987;SDS011;9119;50.932;5.342;2022-07-03T14:42:12;7.07;;;1.40;;
17987;SDS011;9119;50.932;5.342;2022-07-03T14:44:37;5.30;;;1.60;;
17987;SDS011;9119;50.932;5.342;2022-07-03T14:47:03;3.97;;;1.77;;
17987;SDS011;9119;50.932;5.342;2022-07-03T14:49:29;2.88;;;1.30;;
17987;SDS011;9119;50.932;5.342;2022-07-03T14:51:55;2.75;;;1.50;;
17987;SDS011;9119;50.932;5.342;2022-07-03T14:54:21;4.30;;;1.30;;
17987;SDS011;9119;50.932;5.342;2022-07-03T14:56:47;8.85;;;2.92;;
17987;SDS011;9119;50.932;5.342;2022-07-03T14:59:19;1.77;;;1.15;;
17987;SDS011;9119;50.932;5.342;2022-07-03T15:01:56;2.05;;;1.30;;
17987;SDS011;9119;50.932;5.342;2022-07-03T15:04:37;3.92;;;0.82;;
17987;SDS011;9119;50.932;5.342;2022-07-03T15:07:10;2.37;;;1.10;;
17987;SDS011;9119;50.932;5.342;2022-07-03T15:09:39;3.73;;;1.47;;
17987;SDS011;9119;50.932;5.342;2022-07-03T15:12:11;4.70;;;1.30;;
17987;SDS011;9119;50.932;5.342;2022-07-03T15:14:53;5.63;;;1.40;;
17987;SDS011;9119;50.932;5.342;2022-07-03T15:17:22;6.03;;;2.73;;
17987;SDS011;9119;50.932;5.342;2022-07-03T15:19:48;2.93;;;1.47;;
17987;SDS011;9119;50.932;5.342;2022-07-03T15:22:21;5.83;;;0.90;;
17987;SDS011;9119;50.932;5.342;2022-07-03T15:24:48;2.80;;;1.10;;
17987;SDS011;9119;50.932;5.342;2022-07-03T15:27:18;3.90;;;1.57;;
17987;SDS011;9119;50.932;5.342;2022-07-03T15:29:48;4.27;;;1.00;;
17987;SDS011;9119;50.932;5.342;2022-07-03T15:32:14;2.70;;;0.80;;
17987;SDS011;9119;50.932;5.342;2022-07-03T15:34:41;1.40;;;0.82;;
17987;SDS011;9119;50.932;5.342;2022-07-03T15:39:47;2.30;;;1.40;;
17987;SDS011;9119;50.932;5.342;2022-07-03T15:42:24;3.90;;;1.10;;
17987;SDS011;9119;50.932;5.342;2022-07-03T15:45:06;4.77;;;1.17;;
17987;SDS011;9119;50.932;5.342;2022-07-03T15:53:21;5.53;;;1.50;;
17987;SDS011;9119;50.932;5.342;2022-07-03T15:55:48;3.77;;;1.40;;
17987;SDS011;9119;50.932;5.342;2022-07-03T15:58:19;7.27;;;2.30;;
17987;SDS011;9119;50.932;5.342;2022-07-03T16:00:53;5.00;;;1.30;;
17987;SDS011;9119;50.932;5.342;2022-07-03T16:06:42;4.87;;;1.27;;
17987;SDS011;9119;50.932;5.342;2022-07-03T16:09:11;6.20;;;1.00;;
17987;SDS011;9119;50.932;5.342;2022-07-03T16:11:37;7.97;;;1.90;;
17987;SDS011;9119;50.932;5.342;2022-07-03T16:14:06;4.80;;;2.03;;
17987;SDS011;9119;50.932;5.342;2022-07-03T16:16:32;2.97;;;1.00;;
17987;SDS011;9119;50.932;5.342;2022-07-03T16:19:01;3.30;;;1.30;;
17987;SDS011;9119;50.932;5.342;2022-07-03T16:21:29;4.43;;;1.60;;
17987;SDS011;9119;50.932;5.342;2022-07-03T16:23:56;2.47;;;1.00;;
17987;SDS011;9119;50.932;5.342;2022-07-03T16:26:23;5.67;;;1.53;;
17987;SDS011;9119;50.932;5.342;2022-07-03T16:28:51;7.67;;;1.90;;
17987;SDS011;9119;50.932;5.342;2022-07-03T16:31:19;4.70;;;1.80;;
17987;SDS011;9119;50.932;5.342;2022-07-03T16:33:51;4.03;;;2.13;;
17987;SDS011;9119;50.932;5.342;2022-07-03T16:36:21;4.80;;;1.47;;
17987;SDS011;9119;50.932;5.342;2022-07-03T16:38:52;3.60;;;1.40;;
17987;SDS011;9119;50.932;5.342;2022-07-03T16:41:29;3.73;;;1.57;;
17987;SDS011;9119;50.932;5.342;2022-07-03T16:43:58;4.57;;;1.23;;
17987;SDS011;9119;50.932;5.342;2022-07-03T16:46:31;3.73;;;1.33;;
17987;SDS011;9119;50.932;5.342;2022-07-03T16:48:57;6.10;;;1.40;;
17987;SDS011;9119;50.932;5.342;2022-07-03T16:51:30;3.53;;;1.60;;
17987;SDS011;9119;50.932;5.342;2022-07-03T16:53:58;5.90;;;1.30;;
17987;SDS011;9119;50.932;5.342;2022-07-03T16:56:28;4.70;;;0.97;;
17987;SDS011;9119;50.932;5.342;2022-07-03T16:58:56;2.27;;;0.93;;